sensor_id;sensor_type;location;lat;lon;timestamp;temperature;humidity
37560;DHT22;23398;50.928;7.084;2023-05-07T00:00:12;17.30;91.90
37560;DHT22;23398;50.928;7.084;2023-05-07T00:02:40;17.30;91.90
37560;DHT22;23398;50.928;7.084;2023-05-07T00:05:06;17.30;91.90
37560;DHT22;23398;50.928;7.084;2023-05-07T00:07:32;17.30;91.90
37560;DHT22;23398;50.928;7.084;2023-05-07T00:09:58;17.40;91.90
37560;DHT22;23398;50.928;7.084;2023-05-07T00:12:23;17.40;91.90
37560;DHT22;23398;50.928;7.084;2023-05-07T00:14:49;17.40;91.90
37560;DHT22;23398;50.928;7.084;2023-05-07T00:17:14;17.40;91.90
37560;DHT22;23398;50.928;7.084;2023-05-07T00:19:40;17.40;91.80
37560;DHT22;23398;50.928;7.084;2023-05-07T00:22:06;17.40;91.70
37560;DHT22;23398;50.928;7.084;2023-05-07T00:24:32;17.40;91.70
37560;DHT22;23398;50.928;7.084;2023-05-07T00:26:58;17.40;91.70
37560;DHT22;23398;50.928;7.084;2023-05-07T00:29:23;17.40;91.70
37560;DHT22;23398;50.928;7.084;2023-05-07T00:31:49;17.40;91.60
37560;DHT22;23398;50.928;7.084;2023-05-07T00:34:15;17.40;91.60
37560;DHT22;23398;50.928;7.084;2023-05-07T00:36:41;17.40;91.60
37560;DHT22;23398;50.928;7.084;2023-05-07T00:39:07;17.40;91.60
37560;DHT22;23398;50.928;7.084;2023-05-07T00:41:32;17.40;91.60
37560;DHT22;23398;50.928;7.084;2023-05-07T00:43:58;17.40;91.70
37560;DHT22;23398;50.928;7.084;2023-05-07T00:46:23;17.40;91.60
37560;DHT22;23398;50.928;7.084;2023-05-07T00:48:53;17.40;91.70
37560;DHT22;23398;50.928;7.084;2023-05-07T00:51:18;17.40;91.80
37560;DHT22;23398;50.928;7.084;2023-05-07T00:53:45;17.40;91.70
37560;DHT22;23398;50.928;7.084;2023-05-07T00:56:11;17.50;91.70
37560;DHT22;23398;50.928;7.084;2023-05-07T00:58:38;17.40;91.50
37560;DHT22;23398;50.928;7.084;2023-05-07T01:01:03;17.40;91.60
37560;DHT22;23398;50.928;7.084;2023-05-07T01:03:29;17.50;91.70
37560;DHT22;23398;50.928;7.084;2023-05-07T01:05:57;17.40;91.60
37560;DHT22;23398;50.928;7.084;2023-05-07T01:08:24;17.40;91.70
37560;DHT22;23398;50.928;7.084;2023-05-07T01:10:53;17.50;91.70
37560;DHT22;23398;50.928;7.084;2023-05-07T01:13:19;17.40;91.70
37560;DHT22;23398;50.928;7.084;2023-05-07T01:15:45;17.40;91.70
37560;DHT22;23398;50.928;7.084;2023-05-07T01:18:11;17.40;91.70
37560;DHT22;23398;50.928;7.084;2023-05-07T01:20:37;17.40;91.80
37560;DHT22;23398;50.928;7.084;2023-05-07T01:23:03;17.40;91.80
37560;DHT22;23398;50.928;7.084;2023-05-07T01:25:29;17.40;91.70
37560;DHT22;23398;50.928;7.084;2023-05-07T01:27:55;17.40;91.70
37560;DHT22;23398;50.928;7.084;2023-05-07T01:30:22;17.40;91.60
37560;DHT22;23398;50.928;7.084;2023-05-07T01:33:00;17.40;91.50
37560;DHT22;23398;50.928;7.084;2023-05-07T01:35:32;17.40;91.70
37560;DHT22;23398;50.928;7.084;2023-05-07T01:38:00;17.40;91.50
37560;DHT22;23398;50.928;7.084;2023-05-07T01:40:27;17.40;91.40
37560;DHT22;23398;50.928;7.084;2023-05-07T01:42:53;17.40;91.40
37560;DHT22;23398;50.928;7.084;2023-05-07T01:45:19;17.40;91.40
37560;DHT22;23398;50.928;7.084;2023-05-07T01:47:45;17.40;91.40
37560;DHT22;23398;50.928;7.084;2023-05-07T01:50:12;17.40;91.40
37560;DHT22;23398;50.928;7.084;2023-05-07T01:52:38;17.40;91.40
37560;DHT22;23398;50.928;7.084;2023-05-07T01:55:04;17.40;91.50
37560;DHT22;23398;50.928;7.084;2023-05-07T01:57:30;17.40;91.50
37560;DHT22;23398;50.928;7.084;2023-05-07T01:59:56;17.40;91.50
37560;DHT22;23398;50.928;7.084;2023-05-07T02:02:21;17.50;91.60
37560;DHT22;23398;50.928;7.084;2023-05-07T02:04:47;17.50;91.60
37560;DHT22;23398;50.928;7.084;2023-05-07T02:07:12;17.50;91.60
37560;DHT22;23398;50.928;7.084;2023-05-07T02:09:38;17.50;91.60
37560;DHT22;23398;50.928;7.084;2023-05-07T02:12:04;17.50;91.60
37560;DHT22;23398;50.928;7.084;2023-05-07T02:14:29;17.50;91.60
37560;DHT22;23398;50.928;7.084;2023-05-07T02:16:55;17.50;91.70
37560;DHT22;23398;50.928;7.084;2023-05-07T02:19:21;17.50;91.70
37560;DHT22;23398;50.928;7.084;2023-05-07T02:21:46;17.50;91.90
37560;DHT22;23398;50.928;7.084;2023-05-07T02:24:13;17.50;91.70
37560;DHT22;23398;50.928;7.084;2023-05-07T02:26:39;17.50;91.70
37560;DHT22;23398;50.928;7.084;2023-05-07T02:29:05;17.50;91.70
37560;DHT22;23398;50.928;7.084;2023-05-07T02:31:30;17.40;91.60
37560;DHT22;23398;50.928;7.084;2023-05-07T02:33:56;17.40;91.50
37560;DHT22;23398;50.928;7.084;2023-05-07T02:36:22;17.40;91.50
37560;DHT22;23398;50.928;7.084;2023-05-07T02:38:47;17.40;91.60
37560;DHT22;23398;50.928;7.084;2023-05-07T02:41:13;17.40;91.50
37560;DHT22;23398;50.928;7.084;2023-05-07T02:43:38;17.30;91.40
37560;DHT22;23398;50.928;7.084;2023-05-07T02:46:06;17.30;91.50
37560;DHT22;23398;50.928;7.084;2023-05-07T02:48:32;17.30;91.50
37560;DHT22;23398;50.928;7.084;2023-05-07T02:50:58;17.30;91.60
37560;DHT22;23398;50.928;7.084;2023-05-07T02:53:24;17.20;91.60
37560;DHT22;23398;50.928;7.084;2023-05-07T02:55:59;17.20;91.60
37560;DHT22;23398;50.928;7.084;2023-05-07T02:58:25;17.20;91.70
37560;DHT22;23398;50.928;7.084;2023-05-07T03:00:51;17.20;91.70
37560;DHT22;23398;50.928;7.084;2023-05-07T03:03:17;17.20;91.80
37560;DHT22;23398;50.928;7.084;2023-05-07T03:05:43;17.20;91.90
37560;DHT22;23398;50.928;7.084;2023-05-07T03:08:09;17.20;91.90
37560;DHT22;23398;50.928;7.084;2023-05-07T03:10:36;17.10;91.80
37560;DHT22;23398;50.928;7.084;2023-05-07T03:13:02;17.10;91.80
37560;DHT22;23398;50.928;7.084;2023-05-07T03:15:27;17.10;91.70
37560;DHT22;23398;50.928;7.084;2023-05-07T03:17:53;17.10;91.60
37560;DHT22;23398;50.928;7.084;2023-05-07T03:20:18;17.10;91.50
37560;DHT22;23398;50.928;7.084;2023-05-07T03:22:44;17.10;91.40
37560;DHT22;23398;50.928;7.084;2023-05-07T03:25:10;17.00;91.30
37560;DHT22;23398;50.928;7.084;2023-05-07T03:27:36;17.00;91.20
37560;DHT22;23398;50.928;7.084;2023-05-07T03:30:02;17.00;91.50
37560;DHT22;23398;50.928;7.084;2023-05-07T03:32:27;17.00;91.80
37560;DHT22;23398;50.928;7.084;2023-05-07T03:34:53;17.00;91.70
37560;DHT22;23398;50.928;7.084;2023-05-07T03:37:18;16.90;91.80
37560;DHT22;23398;50.928;7.084;2023-05-07T03:39:44;16.90;91.90
37560;DHT22;23398;50.928;7.084;2023-05-07T03:42:10;16.90;92.00
37560;DHT22;23398;50.928;7.084;2023-05-07T03:44:36;16.90;92.10
37560;DHT22;23398;50.928;7.084;2023-05-07T03:47:02;16.80;92.10
37560;DHT22;23398;50.928;7.084;2023-05-07T03:49:28;16.80;92.10
37560;DHT22;23398;50.928;7.084;2023-05-07T03:51:53;16.80;92.00
37560;DHT22;23398;50.928;7.084;2023-05-07T03:54:19;16.80;91.90
37560;DHT22;23398;50.928;7.084;2023-05-07T03:56:45;16.80;91.90
37560;DHT22;23398;50.928;7.084;2023-05-07T03:59:11;16.80;92.00
37560;DHT22;23398;50.928;7.084;2023-05-07T04:01:37;16.80;92.10
37560;DHT22;23398;50.928;7.084;2023-05-07T04:04:02;16.80;92.10
37560;DHT22;23398;50.928;7.084;2023-05-07T04:06:28;16.70;92.10
37560;DHT22;23398;50.928;7.084;2023-05-07T04:08:54;16.70;92.30
37560;DHT22;23398;50.928;7.084;2023-05-07T04:11:19;16.70;92.40
37560;DHT22;23398;50.928;7.084;2023-05-07T04:13:45;16.70;92.50
37560;DHT22;23398;50.928;7.084;2023-05-07T04:16:11;16.70;92.60
37560;DHT22;23398;50.928;7.084;2023-05-07T04:18:36;16.70;92.60
37560;DHT22;23398;50.928;7.084;2023-05-07T04:21:02;16.80;92.60
37560;DHT22;23398;50.928;7.084;2023-05-07T04:23:27;16.80;92.50
37560;DHT22;23398;50.928;7.084;2023-05-07T04:25:53;16.80;92.50
37560;DHT22;23398;50.928;7.084;2023-05-07T04:28:19;17.00;92.60
37560;DHT22;23398;50.928;7.084;2023-05-07T04:30:46;16.90;92.60
37560;DHT22;23398;50.928;7.084;2023-05-07T04:33:11;16.90;92.60
37560;DHT22;23398;50.928;7.084;2023-05-07T04:35:37;17.00;92.60
37560;DHT22;23398;50.928;7.084;2023-05-07T04:38:03;17.00;92.50
37560;DHT22;23398;50.928;7.084;2023-05-07T04:40:28;17.10;92.50
37560;DHT22;23398;50.928;7.084;2023-05-07T04:42:54;17.10;92.30
37560;DHT22;23398;50.928;7.084;2023-05-07T04:45:20;17.20;92.40
37560;DHT22;23398;50.928;7.084;2023-05-07T04:47:45;17.20;92.30
37560;DHT22;23398;50.928;7.084;2023-05-07T04:50:11;17.20;92.40
37560;DHT22;23398;50.928;7.084;2023-05-07T04:52:37;17.20;92.40
37560;DHT22;23398;50.928;7.084;2023-05-07T04:55:02;17.30;92.60
37560;DHT22;23398;50.928;7.084;2023-05-07T04:57:28;17.30;92.60
37560;DHT22;23398;50.928;7.084;2023-05-07T04:59:54;17.40;92.60
37560;DHT22;23398;50.928;7.084;2023-05-07T05:02:20;17.50;92.70
37560;DHT22;23398;50.928;7.084;2023-05-07T05:04:45;17.50;92.80
37560;DHT22;23398;50.928;7.084;2023-05-07T05:07:11;17.60;92.80
37560;DHT22;23398;50.928;7.084;2023-05-07T05:09:37;17.70;92.80
37560;DHT22;23398;50.928;7.084;2023-05-07T05:12:02;17.80;92.80
37560;DHT22;23398;50.928;7.084;2023-05-07T05:14:28;17.90;93.00
37560;DHT22;23398;50.928;7.084;2023-05-07T05:16:54;18.00;92.50
37560;DHT22;23398;50.928;7.084;2023-05-07T05:19:20;18.10;92.40
37560;DHT22;23398;50.928;7.084;2023-05-07T05:21:46;18.20;92.30
37560;DHT22;23398;50.928;7.084;2023-05-07T05:24:11;18.30;92.30
37560;DHT22;23398;50.928;7.084;2023-05-07T05:26:37;18.40;92.30
37560;DHT22;23398;50.928;7.084;2023-05-07T05:29:02;18.50;92.10
37560;DHT22;23398;50.928;7.084;2023-05-07T05:31:28;18.70;91.90
37560;DHT22;23398;50.928;7.084;2023-05-07T05:33:53;18.80;91.90
37560;DHT22;23398;50.928;7.084;2023-05-07T05:36:19;18.90;91.80
37560;DHT22;23398;50.928;7.084;2023-05-07T05:38:44;19.00;91.60
37560;DHT22;23398;50.928;7.084;2023-05-07T05:41:10;19.20;91.40
37560;DHT22;23398;50.928;7.084;2023-05-07T05:43:36;19.30;91.40
37560;DHT22;23398;50.928;7.084;2023-05-07T05:46:01;19.50;91.40
37560;DHT22;23398;50.928;7.084;2023-05-07T05:48:29;19.60;91.00
37560;DHT22;23398;50.928;7.084;2023-05-07T05:50:54;19.80;90.50
37560;DHT22;23398;50.928;7.084;2023-05-07T05:53:20;20.00;90.20
37560;DHT22;23398;50.928;7.084;2023-05-07T05:55:46;20.10;90.00
37560;DHT22;23398;50.928;7.084;2023-05-07T05:58:11;20.30;89.20
37560;DHT22;23398;50.928;7.084;2023-05-07T06:00:37;20.50;87.90
37560;DHT22;23398;50.928;7.084;2023-05-07T06:03:03;20.50;86.40
37560;DHT22;23398;50.928;7.084;2023-05-07T06:05:28;20.70;85.90
37560;DHT22;23398;50.928;7.084;2023-05-07T06:07:54;20.70;84.70
37560;DHT22;23398;50.928;7.084;2023-05-07T06:10:19;20.80;84.00
37560;DHT22;23398;50.928;7.084;2023-05-07T06:12:45;20.80;84.10
37560;DHT22;23398;50.928;7.084;2023-05-07T06:15:10;20.90;83.80
37560;DHT22;23398;50.928;7.084;2023-05-07T06:17:36;20.90;83.50
37560;DHT22;23398;50.928;7.084;2023-05-07T06:20:02;20.90;83.20
37560;DHT22;23398;50.928;7.084;2023-05-07T06:22:27;21.00;83.50
37560;DHT22;23398;50.928;7.084;2023-05-07T06:24:53;21.10;82.80
37560;DHT22;23398;50.928;7.084;2023-05-07T06:27:18;21.20;81.90
37560;DHT22;23398;50.928;7.084;2023-05-07T06:29:44;21.20;81.40
37560;DHT22;23398;50.928;7.084;2023-05-07T06:32:10;21.20;81.50
37560;DHT22;23398;50.928;7.084;2023-05-07T06:34:37;21.40;81.40
37560;DHT22;23398;50.928;7.084;2023-05-07T06:37:03;21.30;81.70
37560;DHT22;23398;50.928;7.084;2023-05-07T06:39:28;21.40;81.40
37560;DHT22;23398;50.928;7.084;2023-05-07T06:41:54;21.60;81.50
37560;DHT22;23398;50.928;7.084;2023-05-07T06:44:19;21.60;81.70
37560;DHT22;23398;50.928;7.084;2023-05-07T06:46:45;21.80;81.30
37560;DHT22;23398;50.928;7.084;2023-05-07T06:49:12;22.00;81.00
37560;DHT22;23398;50.928;7.084;2023-05-07T06:51:38;22.10;79.90
37560;DHT22;23398;50.928;7.084;2023-05-07T06:54:03;22.40;79.40
37560;DHT22;23398;50.928;7.084;2023-05-07T06:56:33;22.60;78.20
37560;DHT22;23398;50.928;7.084;2023-05-07T06:59:00;22.80;77.30
37560;DHT22;23398;50.928;7.084;2023-05-07T07:01:25;23.10;76.80
37560;DHT22;23398;50.928;7.084;2023-05-07T07:03:51;23.30;76.60
37560;DHT22;23398;50.928;7.084;2023-05-07T07:06:17;23.50;74.90
37560;DHT22;23398;50.928;7.084;2023-05-07T07:08:43;23.80;73.60
37560;DHT22;23398;50.928;7.084;2023-05-07T07:11:09;24.10;72.80
37560;DHT22;23398;50.928;7.084;2023-05-07T07:13:35;24.40;71.40
37560;DHT22;23398;50.928;7.084;2023-05-07T07:16:01;24.70;70.50
37560;DHT22;23398;50.928;7.084;2023-05-07T07:18:27;25.10;70.30
37560;DHT22;23398;50.928;7.084;2023-05-07T07:20:53;25.50;69.70
37560;DHT22;23398;50.928;7.084;2023-05-07T07:23:18;26.10;70.50
37560;DHT22;23398;50.928;7.084;2023-05-07T07:25:44;26.80;69.00
37560;DHT22;23398;50.928;7.084;2023-05-07T07:28:10;27.60;66.90
37560;DHT22;23398;50.928;7.084;2023-05-07T07:30:36;28.40;62.80
37560;DHT22;23398;50.928;7.084;2023-05-07T07:33:02;29.20;59.60
37560;DHT22;23398;50.928;7.084;2023-05-07T07:35:32;29.60;57.90
37560;DHT22;23398;50.928;7.084;2023-05-07T07:37:58;30.00;55.90
37560;DHT22;23398;50.928;7.084;2023-05-07T07:40:24;30.20;54.60
37560;DHT22;23398;50.928;7.084;2023-05-07T07:42:50;30.40;53.80
37560;DHT22;23398;50.928;7.084;2023-05-07T07:45:16;30.50;52.60
37560;DHT22;23398;50.928;7.084;2023-05-07T07:47:42;30.60;52.20
37560;DHT22;23398;50.928;7.084;2023-05-07T07:50:08;30.80;52.70
37560;DHT22;23398;50.928;7.084;2023-05-07T07:52:34;31.10;53.00
37560;DHT22;23398;50.928;7.084;2023-05-07T07:55:00;31.50;53.40
37560;DHT22;23398;50.928;7.084;2023-05-07T07:57:26;32.20;53.70
37560;DHT22;23398;50.928;7.084;2023-05-07T07:59:51;33.00;51.30
37560;DHT22;23398;50.928;7.084;2023-05-07T08:02:17;33.80;50.50
37560;DHT22;23398;50.928;7.084;2023-05-07T08:04:44;34.70;50.10
37560;DHT22;23398;50.928;7.084;2023-05-07T08:07:10;35.40;48.40
37560;DHT22;23398;50.928;7.084;2023-05-07T08:09:37;36.20;46.80
37560;DHT22;23398;50.928;7.084;2023-05-07T08:12:03;36.90;44.80
37560;DHT22;23398;50.928;7.084;2023-05-07T08:14:29;37.40;42.70
37560;DHT22;23398;50.928;7.084;2023-05-07T08:16:55;37.70;41.90
37560;DHT22;23398;50.928;7.084;2023-05-07T08:19:21;37.90;41.10
37560;DHT22;23398;50.928;7.084;2023-05-07T08:21:47;38.20;40.40
37560;DHT22;23398;50.928;7.084;2023-05-07T08:24:14;38.30;39.70
37560;DHT22;23398;50.928;7.084;2023-05-07T08:26:39;38.40;39.40
37560;DHT22;23398;50.928;7.084;2023-05-07T08:29:05;38.50;38.30
37560;DHT22;23398;50.928;7.084;2023-05-07T08:31:31;38.40;37.90
37560;DHT22;23398;50.928;7.084;2023-05-07T08:33:57;38.20;37.60
37560;DHT22;23398;50.928;7.084;2023-05-07T08:36:23;38.00;37.30
37560;DHT22;23398;50.928;7.084;2023-05-07T08:38:49;37.60;37.50
37560;DHT22;23398;50.928;7.084;2023-05-07T08:41:15;37.20;37.90
37560;DHT22;23398;50.928;7.084;2023-05-07T08:43:41;36.70;38.40
37560;DHT22;23398;50.928;7.084;2023-05-07T08:46:09;36.30;38.30
37560;DHT22;23398;50.928;7.084;2023-05-07T08:48:36;35.80;38.70
37560;DHT22;23398;50.928;7.084;2023-05-07T08:51:02;35.40;39.00
37560;DHT22;23398;50.928;7.084;2023-05-07T08:53:27;35.00;39.70
37560;DHT22;23398;50.928;7.084;2023-05-07T08:55:53;34.60;40.30
37560;DHT22;23398;50.928;7.084;2023-05-07T08:58:19;34.30;40.80
37560;DHT22;23398;50.928;7.084;2023-05-07T09:00:44;34.00;41.00
37560;DHT22;23398;50.928;7.084;2023-05-07T09:03:10;33.80;41.10
37560;DHT22;23398;50.928;7.084;2023-05-07T09:05:39;33.60;41.20
37560;DHT22;23398;50.928;7.084;2023-05-07T09:08:06;33.40;41.20
37560;DHT22;23398;50.928;7.084;2023-05-07T09:10:33;33.20;41.20
37560;DHT22;23398;50.928;7.084;2023-05-07T09:12:59;32.90;41.40
37560;DHT22;23398;50.928;7.084;2023-05-07T09:15:26;32.80;41.50
37560;DHT22;23398;50.928;7.084;2023-05-07T09:17:52;32.70;41.90
37560;DHT22;23398;50.928;7.084;2023-05-07T09:20:17;32.80;42.40
37560;DHT22;23398;50.928;7.084;2023-05-07T09:22:43;33.20;43.30
37560;DHT22;23398;50.928;7.084;2023-05-07T09:25:09;33.60;42.60
37560;DHT22;23398;50.928;7.084;2023-05-07T09:27:35;34.20;42.30
37560;DHT22;23398;50.928;7.084;2023-05-07T09:30:07;34.90;41.40
37560;DHT22;23398;50.928;7.084;2023-05-07T09:32:36;35.70;40.00
37560;DHT22;23398;50.928;7.084;2023-05-07T09:35:05;36.40;39.80
37560;DHT22;23398;50.928;7.084;2023-05-07T09:37:31;37.30;38.80
37560;DHT22;23398;50.928;7.084;2023-05-07T09:39:58;38.10;37.90
37560;DHT22;23398;50.928;7.084;2023-05-07T09:42:24;38.80;37.00
37560;DHT22;23398;50.928;7.084;2023-05-07T09:44:52;39.40;36.40
37560;DHT22;23398;50.928;7.084;2023-05-07T09:47:19;40.00;34.80
37560;DHT22;23398;50.928;7.084;2023-05-07T09:49:47;40.40;34.10
37560;DHT22;23398;50.928;7.084;2023-05-07T09:52:13;40.90;33.90
37560;DHT22;23398;50.928;7.084;2023-05-07T09:54:40;41.40;33.60
37560;DHT22;23398;50.928;7.084;2023-05-07T09:57:10;42.10;33.00
37560;DHT22;23398;50.928;7.084;2023-05-07T09:59:37;42.80;32.00
37560;DHT22;23398;50.928;7.084;2023-05-07T10:02:04;43.30;31.70
37560;DHT22;23398;50.928;7.084;2023-05-07T10:04:31;43.70;30.40
37560;DHT22;23398;50.928;7.084;2023-05-07T10:06:57;44.30;29.60
37560;DHT22;23398;50.928;7.084;2023-05-07T10:09:25;44.20;29.20
37560;DHT22;23398;50.928;7.084;2023-05-07T10:11:51;44.30;28.80
37560;DHT22;23398;50.928;7.084;2023-05-07T10:14:17;44.30;28.50
37560;DHT22;23398;50.928;7.084;2023-05-07T10:16:44;44.30;28.60
37560;DHT22;23398;50.928;7.084;2023-05-07T10:19:10;44.30;28.60
37560;DHT22;23398;50.928;7.084;2023-05-07T10:21:51;44.10;28.30
37560;DHT22;23398;50.928;7.084;2023-05-07T10:24:26;43.80;28.20
37560;DHT22;23398;50.928;7.084;2023-05-07T10:26:55;43.40;28.10
37560;DHT22;23398;50.928;7.084;2023-05-07T10:35:01;41.60;29.30
37560;DHT22;23398;50.928;7.084;2023-05-07T10:37:28;40.90;29.70
37560;DHT22;23398;50.928;7.084;2023-05-07T10:39:54;40.30;29.70
37560;DHT22;23398;50.928;7.084;2023-05-07T10:42:20;39.70;30.10
37560;DHT22;23398;50.928;7.084;2023-05-07T10:44:46;39.10;30.80
37560;DHT22;23398;50.928;7.084;2023-05-07T10:47:13;38.70;31.50
37560;DHT22;23398;50.928;7.084;2023-05-07T10:52:24;37.80;31.30
37560;DHT22;23398;50.928;7.084;2023-05-07T10:57:50;37.00;32.20
37560;DHT22;23398;50.928;7.084;2023-05-07T11:05:27;35.90;32.90
37560;DHT22;23398;50.928;7.084;2023-05-07T11:08:00;35.60;33.10
37560;DHT22;23398;50.928;7.084;2023-05-07T11:13:15;35.00;34.30
37560;DHT22;23398;50.928;7.084;2023-05-07T11:15:50;34.80;34.40
37560;DHT22;23398;50.928;7.084;2023-05-07T11:18:17;34.50;35.90
37560;DHT22;23398;50.928;7.084;2023-05-07T11:26:04;34.20;35.20
37560;DHT22;23398;50.928;7.084;2023-05-07T11:28:32;34.10;36.60
37560;DHT22;23398;50.928;7.084;2023-05-07T11:31:02;34.00;36.10
37560;DHT22;23398;50.928;7.084;2023-05-07T11:33:27;34.00;36.00
37560;DHT22;23398;50.928;7.084;2023-05-07T11:35:53;34.00;36.30
37560;DHT22;23398;50.928;7.084;2023-05-07T11:38:19;34.00;36.40
37560;DHT22;23398;50.928;7.084;2023-05-07T11:40:59;34.00;36.40
37560;DHT22;23398;50.928;7.084;2023-05-07T11:43:29;34.00;36.50
37560;DHT22;23398;50.928;7.084;2023-05-07T11:45:55;34.00;36.50
37560;DHT22;23398;50.928;7.084;2023-05-07T11:48:29;34.10;36.60
37560;DHT22;23398;50.928;7.084;2023-05-07T11:53:31;34.10;35.80
37560;DHT22;23398;50.928;7.084;2023-05-07T11:56:00;34.10;35.60
37560;DHT22;23398;50.928;7.084;2023-05-07T11:58:25;34.00;35.60
37560;DHT22;23398;50.928;7.084;2023-05-07T12:00:52;34.00;36.50
37560;DHT22;23398;50.928;7.084;2023-05-07T12:03:18;33.90;35.80
37560;DHT22;23398;50.928;7.084;2023-05-07T12:05:47;33.80;36.30
37560;DHT22;23398;50.928;7.084;2023-05-07T12:08:18;33.70;35.40
37560;DHT22;23398;50.928;7.084;2023-05-07T12:10:46;33.60;36.50
37560;DHT22;23398;50.928;7.084;2023-05-07T12:13:21;33.40;36.40
37560;DHT22;23398;50.928;7.084;2023-05-07T12:15:50;33.20;36.30
37560;DHT22;23398;50.928;7.084;2023-05-07T12:18:16;32.90;36.20
37560;DHT22;23398;50.928;7.084;2023-05-07T12:20:42;32.70;36.10
37560;DHT22;23398;50.928;7.084;2023-05-07T12:23:07;32.40;37.60
37560;DHT22;23398;50.928;7.084;2023-05-07T12:25:40;32.10;38.20
37560;DHT22;23398;50.928;7.084;2023-05-07T12:28:16;31.80;37.70
37560;DHT22;23398;50.928;7.084;2023-05-07T12:30:43;31.60;37.20
37560;DHT22;23398;50.928;7.084;2023-05-07T12:33:09;31.40;38.70
37560;DHT22;23398;50.928;7.084;2023-05-07T12:35:40;31.20;38.60
37560;DHT22;23398;50.928;7.084;2023-05-07T12:38:13;31.00;40.00
37560;DHT22;23398;50.928;7.084;2023-05-07T12:43:16;30.70;39.40
37560;DHT22;23398;50.928;7.084;2023-05-07T12:45:43;30.60;39.10
37560;DHT22;23398;50.928;7.084;2023-05-07T12:48:12;30.50;39.20
37560;DHT22;23398;50.928;7.084;2023-05-07T12:50:38;30.30;40.20
37560;DHT22;23398;50.928;7.084;2023-05-07T12:53:04;30.30;41.80
37560;DHT22;23398;50.928;7.084;2023-05-07T12:55:53;30.20;42.40
37560;DHT22;23398;50.928;7.084;2023-05-07T12:58:27;30.20;40.90
37560;DHT22;23398;50.928;7.084;2023-05-07T13:00:54;30.10;41.70
37560;DHT22;23398;50.928;7.084;2023-05-07T13:03:34;30.10;41.90
37560;DHT22;23398;50.928;7.084;2023-05-07T13:06:05;30.00;40.50
37560;DHT22;23398;50.928;7.084;2023-05-07T13:10:59;29.80;42.30
37560;DHT22;23398;50.928;7.084;2023-05-07T13:13:25;29.60;42.30
37560;DHT22;23398;50.928;7.084;2023-05-07T13:15:51;29.50;42.00
37560;DHT22;23398;50.928;7.084;2023-05-07T13:18:17;29.50;43.00
37560;DHT22;23398;50.928;7.084;2023-05-07T13:20:43;29.40;43.20
37560;DHT22;23398;50.928;7.084;2023-05-07T13:23:08;29.40;42.50
37560;DHT22;23398;50.928;7.084;2023-05-07T13:25:34;29.50;43.30
37560;DHT22;23398;50.928;7.084;2023-05-07T13:27:59;29.50;43.70
37560;DHT22;23398;50.928;7.084;2023-05-07T13:30:25;29.60;44.00
37560;DHT22;23398;50.928;7.084;2023-05-07T13:32:51;29.60;44.60
37560;DHT22;23398;50.928;7.084;2023-05-07T13:35:17;29.60;43.90
37560;DHT22;23398;50.928;7.084;2023-05-07T13:37:43;29.60;43.50
37560;DHT22;23398;50.928;7.084;2023-05-07T13:40:09;29.60;43.90
37560;DHT22;23398;50.928;7.084;2023-05-07T13:42:34;29.60;43.80
37560;DHT22;23398;50.928;7.084;2023-05-07T13:45:00;29.70;44.50
37560;DHT22;23398;50.928;7.084;2023-05-07T13:47:26;29.50;46.60
37560;DHT22;23398;50.928;7.084;2023-05-07T13:49:51;29.40;45.40
37560;DHT22;23398;50.928;7.084;2023-05-07T13:52:17;29.30;47.60
37560;DHT22;23398;50.928;7.084;2023-05-07T13:54:43;29.30;47.40
37560;DHT22;23398;50.928;7.084;2023-05-07T13:57:08;29.20;48.20
37560;DHT22;23398;50.928;7.084;2023-05-07T13:59:34;29.10;49.10
37560;DHT22;23398;50.928;7.084;2023-05-07T14:02:00;29.00;51.10
37560;DHT22;23398;50.928;7.084;2023-05-07T14:04:25;28.90;50.50
37560;DHT22;23398;50.928;7.084;2023-05-07T14:06:51;28.60;50.70
37560;DHT22;23398;50.928;7.084;2023-05-07T14:09:17;28.30;50.70
37560;DHT22;23398;50.928;7.084;2023-05-07T14:11:42;28.00;50.30
37560;DHT22;23398;50.928;7.084;2023-05-07T14:14:08;27.80;51.50
37560;DHT22;23398;50.928;7.084;2023-05-07T14:16:36;27.30;52.50
37560;DHT22;23398;50.928;7.084;2023-05-07T14:19:02;26.80;53.90
37560;DHT22;23398;50.928;7.084;2023-05-07T14:21:28;26.40;54.50
37560;DHT22;23398;50.928;7.084;2023-05-07T14:23:53;25.80;53.70
37560;DHT22;23398;50.928;7.084;2023-05-07T14:26:19;25.30;54.70
37560;DHT22;23398;50.928;7.084;2023-05-07T14:28:46;24.90;55.60
37560;DHT22;23398;50.928;7.084;2023-05-07T14:31:12;24.50;56.30
37560;DHT22;23398;50.928;7.084;2023-05-07T14:33:37;24.20;57.00
37560;DHT22;23398;50.928;7.084;2023-05-07T14:36:03;23.90;57.40
37560;DHT22;23398;50.928;7.084;2023-05-07T14:38:29;23.70;57.60
37560;DHT22;23398;50.928;7.084;2023-05-07T14:40:56;23.50;58.00
37560;DHT22;23398;50.928;7.084;2023-05-07T14:43:22;23.30;58.40
37560;DHT22;23398;50.928;7.084;2023-05-07T14:45:47;23.20;58.70
37560;DHT22;23398;50.928;7.084;2023-05-07T14:48:13;23.10;58.70
37560;DHT22;23398;50.928;7.084;2023-05-07T14:50:41;23.00;58.60
37560;DHT22;23398;50.928;7.084;2023-05-07T14:53:06;22.80;58.70
37560;DHT22;23398;50.928;7.084;2023-05-07T14:55:33;22.70;59.20
37560;DHT22;23398;50.928;7.084;2023-05-07T14:57:58;22.70;59.50
37560;DHT22;23398;50.928;7.084;2023-05-07T15:00:24;22.60;59.80
37560;DHT22;23398;50.928;7.084;2023-05-07T15:02:50;22.70;59.80
37560;DHT22;23398;50.928;7.084;2023-05-07T15:05:15;22.60;60.10
37560;DHT22;23398;50.928;7.084;2023-05-07T15:07:41;22.60;60.20
37560;DHT22;23398;50.928;7.084;2023-05-07T15:10:07;22.60;60.40
37560;DHT22;23398;50.928;7.084;2023-05-07T15:12:32;22.70;61.40
37560;DHT22;23398;50.928;7.084;2023-05-07T15:14:58;22.70;62.60
37560;DHT22;23398;50.928;7.084;2023-05-07T15:17:24;22.80;63.00
37560;DHT22;23398;50.928;7.084;2023-05-07T15:19:49;22.90;63.40
37560;DHT22;23398;50.928;7.084;2023-05-07T15:22:15;23.00;62.80
37560;DHT22;23398;50.928;7.084;2023-05-07T15:24:40;23.20;61.70
37560;DHT22;23398;50.928;7.084;2023-05-07T15:27:06;23.40;62.00
37560;DHT22;23398;50.928;7.084;2023-05-07T15:29:32;23.40;61.90
37560;DHT22;23398;50.928;7.084;2023-05-07T15:31:58;23.50;62.60
37560;DHT22;23398;50.928;7.084;2023-05-07T15:34:23;23.60;62.60
37560;DHT22;23398;50.928;7.084;2023-05-07T15:36:49;23.60;62.10
37560;DHT22;23398;50.928;7.084;2023-05-07T15:39:15;23.70;61.80
37560;DHT22;23398;50.928;7.084;2023-05-07T15:41:41;23.70;62.60
37560;DHT22;23398;50.928;7.084;2023-05-07T15:44:07;23.70;62.30
37560;DHT22;23398;50.928;7.084;2023-05-07T15:46:32;23.80;62.30
37560;DHT22;23398;50.928;7.084;2023-05-07T15:49:01;23.80;62.10
37560;DHT22;23398;50.928;7.084;2023-05-07T15:51:27;23.80;62.20
37560;DHT22;23398;50.928;7.084;2023-05-07T15:53:53;23.90;62.40
37560;DHT22;23398;50.928;7.084;2023-05-07T15:56:19;23.90;62.10